Flight Track Log - Related Links

Times and Time Zones

All times are in EDT time to prevent confusion due to time zone crossing. See the JBU661 flight status page for this flight to view local times or setup timezone preferences in your user account.

Time Position Orientation Groundspeed Altitude Reporting Facility
EDT Latitude Longitude Course Direction KTS MPH feet Rate Location/Type
Fri 08:14:10 AM 40.6440 -73.7780 123° Southeast 11 13  Level FlightAware ADS-B
Fri 08:18:10 AM 40.6440 -73.7770 90° East 21 24 17 Level FlightAware ADS-B
Fri 08:18:23 AM 40.6430 -73.7770 180° South 22 25 23 Level FlightAware ADS-B
Fri 08:18:53 AM 40.6420 -73.7760 143° Southeast 25 29 23 Level FlightAware ADS-B
Fri 08:19:09 AM 40.6420 -73.7750 90° East 28 32 24 Level FlightAware ADS-B
Fri 08:19:37 AM 40.6410 -73.7740 143° Southeast 2 2 24 Level FlightAware ADS-B
Fri 08:20:16 AM 40.6400 -73.7730 143° Southeast 30 35 25 Level FlightAware ADS-B
Fri 08:21:15 AM 40.6420 -73.7720 21° North 15 17 27 Level FlightAware ADS-B
Fri 08:21:27 AM 40.6450 -73.7700 27° Northeast 20 23 29 Level FlightAware ADS-B
Fri 08:21:43 AM 40.6460 -73.7700 360° North 22 25 30 Level FlightAware ADS-B
Fri 08:21:55 AM 40.6470 -73.7700 360° North 16 18 31 Level FlightAware ADS-B
Fri 08:22:49 AM 40.6480 -73.7700 360° North 26 30 31 Level FlightAware ADS-B
Fri 08:24:01 AM 40.6480 -73.7690 90° East 15 17 35 Level FlightAware ADS-B
Fri 08:26:00 AM 40.5221 -73.5833 180° South  Level FlightAware Approximate
Fri 08:26:21 AM 40.6490 -73.7670 180° South 15 17  Level FlightAware ADS-B
Fri 08:26:49 AM 40.6490 -73.7660 90° East 20 23 58 Level FlightAware ADS-B
Fri 08:29:00 AM 40.5140 -73.5640 143° Southeast  Level FlightAware Approximate
Fri 08:29:09 AM 40.6490 -73.7650 143° Southeast 23 26  Level FlightAware ADS-B
Fri 08:29:39 AM 40.6480 -73.7650 180° South 129 Level FlightAware ADS-B
Fri 08:30:07 AM 40.6480 -73.7660 270° West 41 47 164 Level FlightAware ADS-B
Fri 08:30:17 AM 40.6450 -73.7680 207° Southwest 84 97 220 Level FlightAware ADS-B
Fri 08:31:29 AM 40.6200 -73.7870 210° Southwest 170 196 300 1,161 Climbing FlightAware ADS-B
Fri 08:31:50 AM 40.5820 -73.8140 208° Southwest 213 245 1,800 2,375 Climbing FlightAware ADS-B
Fri 08:32:17 AM 40.5560 -73.8020 161° South 256 295 2,200 1,231 Climbing FlightAware ADS-B
Fri 08:32:29 AM 40.5460 -73.7850 128° Southeast 272 313 2,600 2,600 Climbing FlightAware ADS-B
Fri 08:32:47 AM 40.5360 -73.7600 118° Southeast 272 313 3,500 3,261 Climbing FlightAware ADS-B
Fri 08:33:15 AM 40.5190 -73.7180 118° Southeast 269 310 5,100 3,200 Climbing FlightAware ADS-B
Fri 08:33:32 AM 40.5092 -73.6931 117° Southeast 271 312 5,900 2,667 Climbing FlightAware ADS-B
Fri 08:33:51 AM 40.4976 -73.6646 118° Southeast 280 322 6,700 2,270 Climbing FlightAware ADS-B
Fri 08:34:09 AM 40.4863 -73.6368 118° Southeast 290 334 7,300 2,057 Climbing FlightAware ADS-B
Fri 08:34:26 AM 40.4755 -73.6103 118° Southeast 299 344 7,900 2,364 Climbing FlightAware ADS-B
Fri 08:34:42 AM 40.4652 -73.5847 118° Southeast 302 348 8,600 2,545 Climbing FlightAware ADS-B
Fri 08:34:59 AM 40.4541 -73.5571 118° Southeast 304 350 9,300 2,438 Climbing FlightAware ADS-B
Fri 08:35:14 AM 40.4436 -73.5309 118° Southeast 310 357 9,900 1,565 Climbing FlightAware ADS-B
Fri 08:35:45 AM 40.4220 -73.4770 118° Southeast 335 386 10,500 1,065 Climbing FlightAware ADS-B
Fri 08:36:16 AM 40.3982 -73.4180 118° Southeast 367 422 11,000 968 Climbing FlightAware ADS-B
Fri 08:36:47 AM 40.3729 -73.3553 118° Southeast 392 451 11,500 1,457 Climbing FlightAware ADS-B
Fri 08:37:26 AM 40.3393 -73.2719 118° Southeast 403 464 12,700 1,810 Climbing FlightAware ADS-B
Fri 08:37:50 AM 40.3154 -73.2229 123° Southeast 409 471 13,400 1,855 Climbing FlightAware ADS-B
Fri 08:38:21 AM 40.2794 -73.1613 127° Southeast 414 476 14,400 1,826 Climbing FlightAware ADS-B
Fri 08:38:59 AM 40.2347 -73.0855 128° Southeast 421 484 15,500 1,644 Climbing FlightAware ADS-B
Fri 08:39:34 AM 40.1918 -73.0125 128° Southeast 431 496 16,400 1,636 Climbing FlightAware ADS-B
Fri 08:40:16 AM 40.1407 -72.9257 128° Southeast 435 501 17,600 1,648 Climbing FlightAware ADS-B
Fri 08:41:05 AM 40.0810 -72.8250 128° Southeast 439 505 18,900 1,521 Climbing FlightAware ADS-B
Fri 08:41:27 AM 40.0528 -72.7771 128° Southeast 443 510 19,400 1,429 Climbing FlightAware ADS-B
Fri 08:42:29 AM 39.9749 -72.6459 128° Southeast 452 520 20,900 1,423 Climbing FlightAware ADS-B
Fri 08:43:04 AM 39.9291 -72.5690 128° Southeast 454 522 21,700 1,189 Climbing FlightAware ADS-B
Fri 08:44:20 AM 39.8170 -72.4260 136° Southeast 462 532 23,100 700 Climbing FlightAware ADS-B
Fri 08:45:04 AM 39.7560 -72.3610 141° Southeast 462 532 23,100  Level FlightAware ADS-B
Fri 08:45:40 AM 39.7050 -72.3080 141° Southeast 462 532 23,100 1,671 Level FlightAware ADS-B
Fri 08:46:23 AM 39.6120 -72.2120 141° Southeast 463 533 25,300 1,294 Climbing FlightAware ADS-B
Fri 08:47:22 AM 39.5300 -72.1230 140° Southeast 463 533 25,300 795 Level FlightAware ADS-B
Fri 08:47:46 AM 39.4647 -72.0590 143° Southeast 482 555 26,400 1,406 Climbing FlightAware ADS-B
Fri 08:48:26 AM 39.4114 -72.0122 143° Southeast 478 550 26,800 713 Climbing New York Center
Fri 08:49:27 AM 39.3042 -71.9028 142° Southeast 488 562 27,600 893 Climbing New York Center
Fri 08:50:27 AM 39.1989 -71.7939 141° Southeast 488 562 28,600 966 Climbing New York Center
Fri 08:51:25 AM 39.0936 -71.6828 141° Southeast 488 562 29,500 958 Climbing New York Center
Fri 08:52:26 AM 38.9858 -71.5744 142° Southeast 483 556 30,500 984 Climbing New York Center
Fri 08:53:27 AM 38.8803 -71.4719 143° Southeast 483 556 31,500 857 Climbing New York Center
Fri 08:54:25 AM 38.7808 -71.3589 138° Southeast 483 556 32,200 814 Climbing New York Center
Fri 08:55:25 AM 38.6728 -71.2597 144° Southeast 483 556 33,100 694 Climbing New York Center
Fri 08:56:26 AM 38.5689 -71.1553 142° Southeast 483 556 33,600 550 Climbing New York Center
Fri 08:57:25 AM 38.4650 -71.0486 141° Southeast 478 550 34,200 550 Climbing New York Center
Fri 08:58:26 AM 38.3611 -70.9500 143° Southeast 478 550 34,700 393 Climbing New York Center
Fri 08:59:27 AM 38.2547 -70.8467 143° Southeast 478 550 35,000 151 Climbing New York Center
Fri 09:00:25 AM 38.1486 -70.7486 144° Southeast 478 550 35,000  Level New York Center
Fri 09:01:25 AM 38.0358 -70.6353 142° Southeast 478 550 35,000  Level New York Center
Fri 09:02:25 AM 37.9356 -70.5511 146° Southeast 478 550 35,000  Level New York Center
Fri 09:03:26 AM 37.8208 -70.4725 152° Southeast 478 550 35,000  Level New York Center
Fri 09:04:25 AM 37.6975 -70.4125 159° South 472 543 35,000  Level New York Center
Fri 09:06:00 AM 37.5434 -70.2822 154° Southeast  Level FlightAware Approximate
Fri 09:13:00 AM 36.7817 -69.8231 154° Southeast  Level FlightAware Approximate
Fri 09:14:00 AM 36.6728 -69.7582 154° Southeast  Level FlightAware Approximate
Fri 09:15:00 AM 36.5638 -69.6936 155° Southeast  Level FlightAware Approximate
Fri 09:16:00 AM 36.4547 -69.6291 155° Southeast  Level FlightAware Approximate
Fri 09:17:00 AM 36.3457 -69.5648 155° Southeast  Level FlightAware Approximate
Fri 09:18:00 AM 36.2366 -69.5007 155° Southeast  Level FlightAware Approximate
Fri 09:19:00 AM 36.1304 -69.4309 142° Southeast  Level FlightAware Approximate
Fri 09:19:58 AM 36.1667 -69.4500 143° Southeast 480 552 35,000  Level New York Oceanic (ODAPS)
Fri 09:20:00 AM 36.0355 -69.3386 142° Southeast  Level FlightAware Approximate
Fri 09:21:00 AM 35.9405 -69.2465 142° Southeast  Level FlightAware Approximate
Fri 09:22:00 AM 35.8454 -69.1546 142° Southeast  Level FlightAware Approximate
Fri 09:23:00 AM 35.7503 -69.0630 142° Southeast  Level FlightAware Approximate
Fri 09:24:00 AM 35.6551 -68.9716 142° Southeast  Level FlightAware Approximate
Fri 09:25:00 AM 35.5590 -68.8818 143° Southeast  Level FlightAware Approximate
Fri 09:26:00 AM 35.2071 -68.5542 143° Southeast 480 552 35,000  Level FlightAware Transoceanic
Fri 09:27:00 AM 35.1001 -68.4559 143° Southeast 480 552 35,000  Level FlightAware Transoceanic
Fri 09:28:00 AM 34.9930 -68.3580 143° Southeast 480 552 35,000  Level FlightAware Transoceanic
Fri 09:29:00 AM 34.8858 -68.2602 143° Southeast 480 552 35,000  Level FlightAware Transoceanic
Fri 09:30:00 AM 34.7785 -68.1628 143° Southeast 480 552 35,000  Level FlightAware Transoceanic
Fri 09:31:00 AM 34.6712 -68.0656 143° Southeast 480 552 35,000  Level FlightAware Transoceanic
Fri 09:32:00 AM 34.5638 -67.9686 143° Southeast 480 552 35,000  Level FlightAware Transoceanic
Fri 09:33:00 AM 34.4563 -67.8719 143° Southeast 480 552 35,000  Level FlightAware Transoceanic
Fri 09:34:00 AM 34.3487 -67.7755 144° Southeast 480 552 35,000  Level FlightAware Transoceanic
Fri 09:35:00 AM 34.2411 -67.6793 144° Southeast 480 552 35,000  Level FlightAware Transoceanic
Fri 09:36:00 AM 34.1333 -67.5833 170° South 480 552 35,000  Level FlightAware Transoceanic
Fri 09:36:58 AM 34.1333 -67.5833 170° South 467 537 35,000  Level New York Oceanic (ODAPS)
Fri 09:37:00 AM 34.0094 -67.5567 170° South 480 552 35,000  Level FlightAware Transoceanic
Fri 09:38:00 AM 33.8855 -67.5301 170° South 480 552 35,000  Level FlightAware Transoceanic
Fri 09:39:00 AM 33.7615 -67.5035 170° South 480 552 35,000  Level FlightAware Transoceanic
Fri 09:40:00 AM 33.6376 -67.4771 170° South 480 552 35,000  Level FlightAware Transoceanic
Fri 09:41:00 AM 33.5136 -67.4507 170° South 480 552 35,000  Level FlightAware Transoceanic
Fri 09:42:00 AM 33.3897 -67.4244 170° South 480 552 35,000  Level FlightAware Transoceanic
Fri 09:43:00 AM 33.2394 -67.3927 170° South 467 537 35,000  Level FlightAware Transoceanic
Fri 09:44:00 AM 33.1117 -67.3657 170° South 467 537 35,000  Level FlightAware Transoceanic
Fri 09:45:00 AM 32.9839 -67.3389 170° South 467 537 35,000  Level FlightAware Transoceanic
Fri 09:46:00 AM 32.8562 -67.3121 170° South 467 537 35,000  Level FlightAware Transoceanic
Fri 09:47:00 AM 32.7284 -67.2855 170° South 467 537 35,000  Level FlightAware Transoceanic
Fri 09:48:00 AM 32.6007 -67.2588 170° South 467 537 35,000  Level FlightAware Transoceanic
Fri 09:49:00 AM 32.4729 -67.2323 170° South 467 537 35,000  Level FlightAware Transoceanic
Fri 09:50:00 AM 32.3452 -67.2058 170° South 467 537 35,000  Level FlightAware Transoceanic
Fri 09:51:00 AM 32.2174 -67.1795 170° South 467 537 35,000  Level FlightAware Transoceanic
Fri 09:52:00 AM 32.0896 -67.1532 170° South 467 537 35,000  Level FlightAware Transoceanic
Fri 09:53:00 AM 31.9618 -67.1269 170° South 467 537 35,000  Level FlightAware Transoceanic
Fri 09:54:00 AM 31.8341 -67.1008 170° South 467 537 35,000  Level FlightAware Transoceanic
Fri 09:55:00 AM 31.7063 -67.0747 170° South 467 537 35,000  Level FlightAware Transoceanic
Fri 09:56:00 AM 31.5785 -67.0486 170° South 467 537 35,000  Level FlightAware Transoceanic
Fri 09:57:00 AM 31.4507 -67.0227 170° South 467 537 35,000  Level FlightAware Transoceanic
Fri 09:58:00 AM 31.3229 -66.9968 170° South 467 537 35,000  Level FlightAware Transoceanic
Fri 09:59:00 AM 31.1951 -66.9710 170° South 467 537 35,000  Level FlightAware Transoceanic
Fri 10:00:00 AM 31.0672 -66.9453 170° South 467 537 35,000  Level FlightAware Transoceanic
Fri 10:01:00 AM 30.9394 -66.9196 170° South 467 537 35,000  Level FlightAware Transoceanic
Fri 10:02:00 AM 30.8116 -66.8940 170° South 467 537 35,000  Level FlightAware Transoceanic
Fri 10:03:00 AM 30.6838 -66.8685 170° South 467 537 35,000  Level FlightAware Transoceanic
Fri 10:04:00 AM 30.5559 -66.8430 170° South 467 537 35,000  Level FlightAware Transoceanic
Fri 10:05:00 AM 30.4281 -66.8176 170° South 467 537 35,000  Level FlightAware Transoceanic
Fri 10:06:00 AM 30.3002 -66.7923 170° South 467 537 35,000  Level FlightAware Transoceanic
Fri 10:07:00 AM 30.1724 -66.7670 170° South 467 537 35,000  Level FlightAware Transoceanic
Fri 10:08:00 AM 30.0445 -66.7418 170° South 467 537 35,000  Level FlightAware Transoceanic
Fri 10:09:00 AM 29.9167 -66.7167 170° South 467 537 35,000  Level FlightAware Transoceanic
Fri 10:10:00 AM 29.7922 -66.6923 170° South 467 537 35,000  Level FlightAware Transoceanic
Fri 10:10:43 AM 29.9167 -66.7167 170° South 448 516 35,000  Level New York Oceanic (ODAPS)
Fri 10:11:00 AM 29.6677 -66.6679 170° South 467 537 35,000  Level FlightAware Transoceanic
Fri 10:12:00 AM 29.5431 -66.6436 170° South 467 537 35,000  Level FlightAware Transoceanic
Fri 10:13:00 AM 29.4186 -66.6194 170° South 467 537 35,000  Level FlightAware Transoceanic
Fri 10:14:00 AM 29.2941 -66.5952 170° South 467 537 35,000  Level FlightAware Transoceanic
Fri 10:15:00 AM 29.1696 -66.5711 170° South 467 537 35,000  Level FlightAware Transoceanic
Fri 10:16:00 AM 29.0450 -66.5470 170° South 467 537 35,000  Level FlightAware Transoceanic
Fri 10:17:00 AM 28.9205 -66.5230 170° South 448 516 35,000  Level FlightAware Transoceanic
Fri 10:18:00 AM 28.7960 -66.4991 170° South 448 516 35,000  Level FlightAware Transoceanic
Fri 10:19:00 AM 28.6714 -66.4752 170° South 448 516 35,000  Level FlightAware Transoceanic
Fri 10:20:00 AM 28.5469 -66.4514 170° South 448 516 35,000  Level FlightAware Transoceanic
Fri 10:21:00 AM 28.4223 -66.4276 170° South 448 516 35,000  Level FlightAware Transoceanic
Fri 10:22:00 AM 28.2978 -66.4039 170° South 448 516 35,000  Level FlightAware Transoceanic
Fri 10:23:00 AM 28.1732 -66.3803 171° South 448 516 35,000  Level FlightAware Transoceanic
Fri 10:24:00 AM 28.0487 -66.3567 171° South 448 516 35,000  Level FlightAware Transoceanic
Fri 10:25:00 AM 27.9241 -66.3331 171° South 448 516 35,000  Level FlightAware Transoceanic
Fri 10:26:00 AM 27.7995 -66.3096 171° South 448 516 35,000  Level FlightAware Transoceanic
Fri 10:27:00 AM 27.6749 -66.2862 171° South 448 516 35,000  Level FlightAware Transoceanic
Fri 10:28:00 AM 27.5504 -66.2628 171° South 448 516 35,000  Level FlightAware Transoceanic
Fri 10:29:00 AM 27.4258 -66.2395 171° South 448 516 35,000  Level FlightAware Transoceanic
Fri 10:30:00 AM 27.3012 -66.2162 171° South 448 516 35,000  Level FlightAware Transoceanic
Fri 10:31:00 AM 27.1766 -66.1929 171° South 448 516 35,000  Level FlightAware Transoceanic
Fri 10:32:00 AM 27.0520 -66.1698 171° South 448 516 35,000  Level FlightAware Transoceanic
Fri 10:33:00 AM 26.9274 -66.1467 171° South 448 516 35,000  Level FlightAware Transoceanic
Fri 10:34:00 AM 26.8028 -66.1236 171° South 448 516 35,000  Level FlightAware Transoceanic
Fri 10:35:00 AM 26.6782 -66.1005 171° South 448 516 35,000  Level FlightAware Transoceanic
Fri 10:36:00 AM 26.5536 -66.0776 171° South 448 516 35,000  Level FlightAware Transoceanic
Fri 10:37:00 AM 26.4290 -66.0547 171° South 448 516 35,000  Level FlightAware Transoceanic
Fri 10:38:00 AM 26.3044 -66.0318 171° South 448 516 35,000  Level FlightAware Transoceanic
Fri 10:39:00 AM 26.1797 -66.0090 171° South 448 516 35,000  Level FlightAware Transoceanic
Fri 10:40:00 AM 26.0551 -65.9862 171° South 448 516 35,000  Level FlightAware Transoceanic
Fri 10:41:00 AM 25.9305 -65.9635 171° South 448 516 35,000  Level FlightAware Transoceanic
Fri 10:42:00 AM 25.8058 -65.9408 171° South 448 516 35,000  Level FlightAware Transoceanic
Fri 10:43:00 AM 25.6812 -65.9181 171° South 448 516 35,000  Level FlightAware Transoceanic
Fri 10:44:00 AM 25.5566 -65.8956 171° South 448 516 35,000  Level FlightAware Transoceanic
Fri 10:45:00 AM 25.4319 -65.8730 171° South 448 516 35,000  Level FlightAware Transoceanic
Fri 10:46:00 AM 25.3073 -65.8505 171° South 448 516 35,000  Level FlightAware Transoceanic
Fri 10:47:00 AM 25.1826 -65.8281 171° South 448 516 35,000  Level FlightAware Transoceanic
Fri 10:48:00 AM 25.0580 -65.8057 171° South 448 516 35,000  Level FlightAware Transoceanic
Fri 10:49:00 AM 24.9333 -65.7833 171° South 448 516 35,000  Level FlightAware Transoceanic
Fri 10:50:00 AM 24.8139 -65.7623 171° South 448 516 35,000  Level FlightAware Transoceanic
Fri 10:51:00 AM 24.6945 -65.7413 171° South 448 516 35,000  Level FlightAware Transoceanic
Fri 10:52:00 AM 24.5750 -65.7203 171° South 448 516 35,000  Level FlightAware Transoceanic
Fri 10:53:00 AM 24.4556 -65.6994 171° South 448 516 35,000  Level FlightAware Transoceanic
Fri 10:54:00 AM 24.3362 -65.6785 171° South 448 516 35,000  Level FlightAware Transoceanic
Fri 10:55:00 AM 24.2167 -65.6576 171° South 448 516 35,000  Level FlightAware Transoceanic
Fri 10:56:00 AM 24.0973 -65.6368 171° South 448 516 35,000  Level FlightAware Transoceanic
Fri 10:57:00 AM 23.9778 -65.6160 171° South 448 516 35,000  Level FlightAware Transoceanic
Fri 10:58:00 AM 23.8584 -65.5953 171° South 448 516 35,000  Level FlightAware Transoceanic
Fri 10:59:00 AM 23.7389 -65.5746 171° South 448 516 35,000  Level FlightAware Transoceanic
Fri 11:00:00 AM 23.6195 -65.5539 171° South 448 516 35,000  Level FlightAware Transoceanic
Fri 11:01:00 AM 23.5002 -65.5334 171° South  Level FlightAware Approximate
Fri 11:02:00 AM 23.3809 -65.5135 171° South  Level FlightAware Approximate
Fri 11:02:28 AM 23.5000 -65.5333 165° South 433 498 35,000  Level New York Oceanic (ODAPS)
Fri 11:03:00 AM 23.3836 -65.5002 165° South  Level FlightAware Approximate
Fri 11:04:00 AM 23.2668 -65.4669 165° South  Level FlightAware Approximate
Fri 11:05:00 AM 23.1500 -65.4337 165° South  Level FlightAware Approximate
Fri 11:06:00 AM 23.0332 -65.4006 165° South  Level FlightAware Approximate
Fri 11:07:00 AM 22.9164 -65.3675 165° South  Level FlightAware Approximate
Fri 11:08:00 AM 22.6661 -65.2974 165° South 433 498 35,000  Level FlightAware Transoceanic
Fri 11:09:00 AM 22.5470 -65.2639 165° South 433 498 35,000  Level FlightAware Transoceanic
Fri 11:10:00 AM 22.4278 -65.2305 165° South 433 498 35,000  Level FlightAware Transoceanic
Fri 11:10:30 AM 22.4000 -65.2333 166° South 390 449 35,000  Level San Juan Center
Fri 11:11:00 AM 22.3087 -65.1972 165° South 433 498 35,000  Level FlightAware Transoceanic
Fri 11:11:30 AM 22.2833 -65.1833 158° South 450 518 35,000  Level San Juan Center
Fri 11:12:00 AM 22.1895 -65.1639 166° South 433 498 35,000  Level FlightAware Transoceanic
Fri 11:12:30 AM 22.1667 -65.1500 165° South 460 529 35,000  Level San Juan Center
Fri 11:13:00 AM 22.0703 -65.1306 166° South 433 498 35,000  Level FlightAware Transoceanic
Fri 11:13:30 AM 22.0333 -65.1167 167° South 450 518 35,000  Level San Juan Center
Fri 11:14:00 AM 21.9511 -65.0974 166° South 433 498 35,000  Level FlightAware Transoceanic
Fri 11:14:31 AM 21.9333 -65.0500 148° Southeast 460 529 35,000  Level San Juan Center
Fri 11:15:00 AM 21.8319 -65.0643 166° South 433 498 35,000  Level FlightAware Transoceanic
Fri 11:15:31 AM 21.8167 -64.9833 152° Southeast 440 506 35,000  Level San Juan Center
Fri 11:16:00 AM 21.7127 -65.0312 166° South 433 498 35,000  Level FlightAware Transoceanic
Fri 11:16:31 AM 21.7000 -64.9167 152° Southeast 440 506 35,000  Level San Juan Center
Fri 11:17:32 AM 21.6000 -64.8500 148° Southeast 450 518 35,000  Level San Juan Center
Fri 11:18:32 AM 21.4833 -64.7833 152° Southeast 440 506 35,000  Level San Juan Center
Fri 11:19:32 AM 21.3833 -64.7333 155° Southeast 440 506 35,000  Level San Juan Center
Fri 11:20:32 AM 21.2667 -64.6500 146° Southeast 450 518 35,000  Level San Juan Center
Fri 11:26:25 AM 20.6160 -64.2680 146° Southeast 456 525 35,000  Level FlightAware ADS-B
Fri 11:27:34 AM 20.5040 -64.1990 150° Southeast 456 525 35,000  Level FlightAware ADS-B
Fri 11:28:24 AM 20.4040 -64.1420 152° Southeast 455 524 35,000  Level FlightAware ADS-B
Fri 11:29:05 AM 20.3400 -64.1030 150° Southeast 455 524 35,000  Level FlightAware ADS-B
Fri 11:29:55 AM 20.2630 -64.0550 150° Southeast 455 524 35,000  Level FlightAware ADS-B
Fri 11:30:33 AM 20.2040 -64.0190 150° Southeast 455 524 35,000  Level FlightAware ADS-B
Fri 11:31:15 AM 20.0930 -63.9600 153° Southeast 450 518 35,000  Level FlightAware ADS-B
Fri 11:31:59 AM 20.0260 -63.9190 150° Southeast 450 518 35,000  Level FlightAware ADS-B
Fri 11:32:33 AM 19.9740 -63.8870 150° Southeast 450 518 35,000  Level FlightAware ADS-B
Fri 11:33:23 AM 19.8460 -63.8160 152° Southeast 452 520 35,000  Level FlightAware ADS-B
Fri 11:34:05 AM 19.7700 -63.7720 151° Southeast 451 519 35,000  Level FlightAware ADS-B
Fri 11:34:43 AM 19.6990 -63.7300 151° Southeast 451 519 35,000  Level FlightAware ADS-B
Fri 11:35:56 AM 19.6320 -63.6910 151° Southeast 449 517 35,000  Level FlightAware ADS-B
Fri 11:36:32 AM 19.5240 -63.6280 151° Southeast 449 517 35,000  Level FlightAware ADS-B
Fri 11:37:22 AM 19.4470 -63.5830 151° Southeast 449 517 35,000  Level FlightAware ADS-B
Fri 11:38:00 AM 19.3880 -63.5490 151° Southeast 449 517 35,000  Level FlightAware ADS-B
Fri 11:38:38 AM 19.3300 -63.5140 150° Southeast 449 517 35,000  Level FlightAware ADS-B
Fri 11:39:26 AM 19.2560 -63.4710 151° Southeast 449 517 35,000  Level FlightAware ADS-B
Fri 11:40:01 AM 19.2020 -63.4390 151° Southeast 449 517 35,000  Level FlightAware ADS-B
Fri 11:40:53 AM 19.1210 -63.3920 151° Southeast 449 517 35,000  Level FlightAware ADS-B
Fri 11:41:35 AM 19.0560 -63.3540 151° Southeast 449 517 35,000  Level FlightAware ADS-B
Fri 11:42:11 AM 19.0010 -63.3210 150° Southeast 449 517 35,000  Level FlightAware ADS-B
Fri 11:42:50 AM 18.9410 -63.2860 151° Southeast 449 517 35,000  Level FlightAware ADS-B
Fri 11:43:38 AM 18.8660 -63.2420 151° Southeast 449 517 35,000  Level FlightAware ADS-B
Fri 11:44:15 AM 18.8090 -63.2090 151° Southeast 449 517 35,000  Level FlightAware ADS-B
Fri 11:45:04 AM 18.7340 -63.1650 151° Southeast 449 517 35,000  Level FlightAware ADS-B
Fri 11:45:46 AM 18.6690 -63.1270 151° Southeast 449 517 35,000  Level FlightAware ADS-B
Fri 11:46:41 AM 18.3833 -62.9667 151° Southeast 450 518 35,000  Level San Juan Center
Fri 11:47:41 AM 18.2833 -62.9000 148° Southeast 450 518 35,000  Level San Juan Center
Fri 11:48:41 AM 18.1667 -62.8500 158° South 450 518 35,000  Level San Juan Center
Fri 11:49:42 AM 18.0500 -62.7833 151° Southeast 450 518 35,000  Level San Juan Center
Fri 11:50:42 AM 17.9333 -62.7167 151° Southeast 450 518 35,000  Level San Juan Center
Fri 11:51:42 AM 17.8333 -62.6500 148° Southeast 440 506 35,000  Level San Juan Center
Fri 11:52:42 AM 17.7333 -62.6000 155° Southeast 450 518 35,000  Level San Juan Center
Fri 11:53:43 AM 17.6167 -62.5167 146° Southeast 460 529 35,000 48 Level San Juan Center
Fri 11:55:00 AM 17.5238 -62.3829 126° Southeast  Level FlightAware Approximate
Fri 12:01:07 PM 16.8500 -61.9900 126° Southeast 458 527 35,400  Level FlightAware ADS-B
Fri 12:02:03 PM 16.7500 -61.9230 147° Southeast 457 526 35,400  Level FlightAware ADS-B
Fri 12:02:40 PM 16.6880 -61.8800 146° Southeast 457 526 35,400  Level FlightAware ADS-B
Fri 12:03:44 PM 16.5710 -61.8010 147° Southeast 457 526 35,400  Level FlightAware ADS-B
Fri 12:04:40 PM 16.4710 -61.7330 147° Southeast 458 527 35,400  Level FlightAware ADS-B
Fri 12:05:15 PM 16.4090 -61.6920 148° Southeast 458 527 35,400  Level FlightAware ADS-B
Fri 12:06:17 PM 16.2990 -61.6170 147° Southeast 459 528 35,400  Level FlightAware ADS-B
Fri 12:06:52 PM 16.2360 -61.5750 147° Southeast 461 531 35,400  Level FlightAware ADS-B
Fri 12:07:37 PM 16.1560 -61.5210 147° Southeast 461 531 35,400  Level FlightAware ADS-B
Fri 12:08:22 PM 16.0740 -61.4660 147° Southeast 460 529 35,400  Level FlightAware ADS-B
Fri 12:09:04 PM 16.0040 -61.4190 147° Southeast 461 531 35,400  Level FlightAware ADS-B
Fri 12:09:43 PM 15.9350 -61.3720 147° Southeast 461 531 35,400  Level FlightAware ADS-B
Fri 12:10:13 PM 15.8760 -61.3330 148° Southeast 461 531 35,400 -343 Level FlightAware ADS-B
Fri 12:10:53 PM 15.8060 -61.2860 147° Southeast 461 531 35,000  Descending FlightAware ADS-B
Fri 12:11:24 PM 15.7620 -61.2570 148° Southeast 461 531 35,400  Climbing FlightAware ADS-B
Fri 12:11:59 PM 15.6970 -61.2130 147° Southeast 461 531 35,000 -286 Descending FlightAware ADS-B
Fri 12:12:48 PM 15.6130 -61.1570 147° Southeast 459 528 35,000  Level FlightAware ADS-B
Fri 12:13:29 PM 15.5310 -61.1020 147° Southeast 459 528 35,000  Level FlightAware ADS-B
Fri 12:14:07 PM 15.4600 -61.0540 147° Southeast 459 528 35,000  Level FlightAware ADS-B
Fri 12:14:51 PM 15.3850 -61.0050 148° Southeast 459 528 35,000  Level FlightAware ADS-B
Fri 12:15:35 PM 15.3200 -60.9610 147° Southeast 460 529 35,000  Level FlightAware ADS-B
Fri 12:16:28 PM 15.2120 -60.8890 147° Southeast 460 529 35,000  Level FlightAware ADS-B
Fri 12:17:11 PM 15.1310 -60.8350 147° Southeast 459 528 35,000  Level FlightAware ADS-B
Fri 12:17:45 PM 15.0750 -60.7990 148° Southeast 459 528 35,000  Level FlightAware ADS-B
Fri 12:18:25 PM 15.0020 -60.7500 147° Southeast 460 529 35,000  Level FlightAware ADS-B
Fri 12:19:19 PM 14.9150 -60.6920 147° Southeast 461 531 35,000  Level FlightAware ADS-B
Fri 12:19:59 PM 14.8330 -60.6370 147° Southeast 461 531 35,000  Level FlightAware ADS-B
Fri 12:20:45 PM 14.7490 -60.5820 148° Southeast 462 532 35,000  Level FlightAware ADS-B
Fri 12:21:22 PM 14.6820 -60.5370 147° Southeast 463 533 35,000 -485 Level FlightAware ADS-B
Fri 12:22:24 PM 14.5720 -60.4650 148° Southeast 460 529 34,200 -866 Descending FlightAware ADS-B
Fri 12:22:59 PM 14.5140 -60.4260 147° Southeast 462 532 33,600 -1,037 Descending FlightAware ADS-B
Fri 12:23:45 PM 14.4210 -60.3650 148° Southeast 466 536 32,800 -977 Descending FlightAware ADS-B
Fri 12:24:25 PM 14.3520 -60.3200 148° Southeast 469 540 32,200 -1,313 Descending FlightAware ADS-B
Fri 12:25:21 PM 14.2450 -60.2490 147° Southeast 471 542 30,700 -2,079 Descending FlightAware ADS-B
Fri 12:26:06 PM 14.1710 -60.2000 147° Southeast 473 544 28,700 -2,634 Descending FlightAware ADS-B
Fri 12:26:43 PM 14.0980 -60.1520 147° Southeast 466 536 27,100 -2,538 Descending FlightAware ADS-B
Fri 12:27:24 PM 14.0260 -60.1040 147° Southeast 459 528 25,400 -2,455 Descending FlightAware ADS-B
Fri 12:28:11 PM 13.9460 -60.0520 148° Southeast 452 520 23,500 -2,455 Descending FlightAware ADS-B
Fri 12:28:52 PM 13.8710 -60.0030 148° Southeast 438 504 21,800 -2,523 Descending FlightAware ADS-B
Fri 12:29:39 PM 13.7900 -59.9500 148° Southeast 422 486 19,800 -2,458 Descending FlightAware ADS-B
Fri 12:30:15 PM 13.7320 -59.9110 147° Southeast 413 475 18,400 -1,105 Descending FlightAware ADS-B
Fri 12:30:55 PM 13.6770 -59.8750 148° Southeast 413 475 18,400  Level FlightAware ADS-B
Fri 12:31:44 PM 13.6100 -59.8300 147° Southeast 413 475 18,400  Level FlightAware ADS-B
Fri 12:32:19 PM 13.5630 -59.7990 147° Southeast 413 475 18,400  Level FlightAware ADS-B
Fri 12:33:07 PM 13.4970 -59.7550 147° Southeast 413 475 18,400  Level FlightAware ADS-B
Fri 12:33:41 PM 13.4510 -59.7240 147° Southeast 413 475 18,400 -4,343 Level FlightAware ADS-B
Fri 12:36:00 PM 13.2142 -59.5586 150° Southeast  Level FlightAware Approximate
Fri 12:36:07 PM 13.2020 -59.7220 150° Southeast 4,200  Level FlightAware ADS-B
Fri 12:36:37 PM 13.1740 -59.7120 161° South 261 300 3,200 -1,862 Descending FlightAware ADS-B
Fri 12:37:05 PM 13.1380 -59.6990 161° South 259 298 2,400 -1,111 Descending FlightAware ADS-B
Fri 12:37:31 PM 13.1080 -59.6880 160° South 249 287 2,200 -353 Descending FlightAware ADS-B
Fri 12:37:56 PM 13.0880 -59.6810 161° South 231 266 2,100 -207 Descending FlightAware ADS-B
Fri 12:38:29 PM 13.0580 -59.6620 148° Southeast 187 215 2,000 -95 Descending FlightAware ADS-B
Fri 12:38:59 PM 13.0480 -59.6400 115° Southeast 163 188 2,000  Level FlightAware ADS-B
Fri 12:39:23 PM 13.0470 -59.6200 93° East 158 182 2,000  Level FlightAware ADS-B
Fri 12:39:38 PM 13.0460 -59.6140 100° East 158 182 2,000 -500 Level FlightAware ADS-B
Fri 12:40:23 PM 13.0530 -59.5790 78° East 140 161 1,500 -658 Descending FlightAware ADS-B
Fri 12:40:51 PM 13.0570 -59.5630 76° East 134 154 1,200 -720 Descending FlightAware ADS-B
Fri 12:41:13 PM 13.0610 -59.5480 75° East 135 155 900 -750 Descending FlightAware ADS-B
Fri 12:41:31 PM 13.0630 -59.5380 78° East 133 153 700 -625 Descending FlightAware ADS-B
Fri 12:42:01 PM 13.0680 -59.5190 75° East 134 154 400 -667 Descending FlightAware ADS-B
Fri 12:42:25 PM 13.0720 -59.5040 75° East 138 159 100 -750 Descending FlightAware ADS-B
Fri 12:42:51 PM 13.0750 -59.4910 77° East 76 87 -231 Descending FlightAware ADS-B
Fri 12:43:19 PM 13.0770 -59.4830 76° East 76 87  Level FlightAware ADS-B
Fri 12:46:00 PM 13.0746 -59.4925 90° East  Level Estimated
Fri 12:47:00 PM 13.0746 -59.4925 90° East  Level Estimated

Login

Don't have an account? Register now (free) for customized features, flight alerts, and more!